createdAt,value
2023-07-11T00:02:41.776Z,100586.38
2023-07-11T00:05:29.993Z,100590.78
2023-07-11T00:08:17.015Z,100592.34
2023-07-11T00:10:57.765Z,100593.53
2023-07-11T00:13:45.070Z,100597.59
2023-07-11T00:16:31.970Z,100593.56
2023-07-11T00:19:19.446Z,100585.13
2023-07-11T00:22:05.967Z,100581.09
2023-07-11T00:24:46.647Z,100585.53
2023-07-11T00:27:34.002Z,100575.50
2023-07-11T00:30:21.974Z,100582.78
2023-07-11T00:33:09.030Z,100590.03
2023-07-11T00:35:53.154Z,100579.59
2023-07-11T00:38:39.948Z,100582.03
2023-07-11T00:41:26.964Z,100583.66
2023-07-11T00:44:22.982Z,100581.22
2023-07-11T00:47:10.024Z,100570.00
2023-07-11T00:49:55.919Z,100578.81
2023-07-11T00:52:43.939Z,100574.81
2023-07-11T00:55:30.968Z,100561.94
2023-07-11T00:58:13.061Z,100561.94
2023-07-11T01:01:01.048Z,100561.56
2023-07-11T01:03:48.020Z,100553.53
2023-07-11T01:06:36.968Z,100558.34
2023-07-11T01:09:23.987Z,100546.63
2023-07-11T01:12:09.970Z,100555.44
2023-07-11T01:15:01.980Z,100557.38
2023-07-11T01:17:48.939Z,100553.78
2023-07-11T01:20:35.921Z,100553.72
2023-07-11T01:23:22.952Z,100552.09
2023-07-11T01:26:08.290Z,100549.28
2023-07-11T01:28:54.965Z,100548.81
2023-07-11T01:31:43.014Z,100549.94
2023-07-11T01:34:22.974Z,100551.59
2023-07-11T01:37:03.377Z,100546.34
2023-07-11T01:39:49.923Z,100565.00
2023-07-11T01:42:36.916Z,100559.03
2023-07-11T01:45:17.976Z,100556.19
2023-07-11T01:48:04.885Z,100573.34
2023-07-11T01:50:51.957Z,100586.94
2023-07-11T01:53:32.396Z,100578.00
2023-07-11T01:56:19.945Z,100572.41
2023-07-11T01:59:06.919Z,100577.28
2023-07-11T02:01:47.070Z,100578.44
2023-07-11T02:04:33.911Z,100572.88
2023-07-11T02:07:14.997Z,100567.22
2023-07-11T02:10:01.927Z,100572.03
2023-07-11T02:12:41.969Z,100564.78
2023-07-11T02:15:28.921Z,100571.25
2023-07-11T02:18:09.347Z,100570.44
2023-07-11T02:20:55.881Z,100576.78
2023-07-11T02:23:36.059Z,100570.28
2023-07-11T02:26:23.064Z,100570.69
2023-07-11T02:29:02.934Z,100562.25
2023-07-11T02:31:56.855Z,100559.44
2023-07-11T02:34:37.270Z,100576.56
2023-07-11T02:37:23.844Z,100580.63
2023-07-11T02:40:10.850Z,100589.44
2023-07-11T02:42:57.851Z,100589.41
2023-07-11T02:45:44.885Z,100598.19
2023-07-11T02:48:24.917Z,100594.94
2023-07-11T02:51:11.814Z,100590.09
2023-07-11T02:53:58.897Z,100590.47
2023-07-11T02:56:39.327Z,100599.25
2023-07-11T02:59:25.842Z,100594.47
2023-07-11T03:02:06.617Z,100593.72
2023-07-11T03:04:53.904Z,100592.19
2023-07-11T03:07:34.700Z,100588.63
2023-07-11T03:10:21.868Z,100591.91
2023-07-11T03:13:08.872Z,100579.97
2023-07-11T03:15:55.779Z,100584.03
2023-07-11T03:18:36.143Z,100574.16
2023-07-11T03:21:22.834Z,100577.69
2023-07-11T03:24:03.247Z,100586.97
2023-07-11T03:26:49.789Z,100591.00
2023-07-11T03:29:30.243Z,100586.25
2023-07-11T03:32:16.801Z,100583.97
2023-07-11T03:35:02.945Z,100604.78
2023-07-11T03:37:50.804Z,100605.72
2023-07-11T03:40:37.886Z,100611.72
2023-07-11T03:43:17.776Z,100615.41
2023-07-11T03:45:58.275Z,100607.91
2023-07-11T03:48:44.734Z,100609.53
2023-07-11T03:51:25.214Z,100600.38
2023-07-11T03:54:11.802Z,100610.13
2023-07-11T03:56:59.734Z,100607.38
2023-07-11T03:59:46.777Z,100615.81
2023-07-11T04:02:33.903Z,100620.72
2023-07-11T04:05:20.711Z,100612.72
2023-07-11T04:08:07.768Z,100612.72
2023-07-11T04:10:47.864Z,100616.31
2023-07-11T04:16:14.987Z,100616.16
2023-07-11T04:19:01.795Z,100626.75
2023-07-11T04:21:42.859Z,100631.16
2023-07-11T04:24:29.765Z,100628.28
2023-07-11T04:27:09.895Z,100637.25
2023-07-11T04:29:56.732Z,100643.97
2023-07-11T04:32:43.937Z,100644.44
2023-07-11T04:35:23.806Z,100642.69
2023-07-11T04:38:10.769Z,100639.28
2023-07-11T04:40:51.895Z,100643.59
2023-07-11T04:43:41.722Z,100650.00
2023-07-11T04:46:21.990Z,100639.19
2023-07-11T04:49:08.866Z,100644.13
2023-07-11T04:51:55.678Z,100636.22
2023-07-11T04:54:36.466Z,100638.69
2023-07-11T04:57:23.752Z,100643.59
2023-07-11T05:00:05.141Z,100637.78
2023-07-11T05:02:51.760Z,100635.59
2023-07-11T05:05:42.686Z,100644.00
2023-07-11T05:08:29.682Z,100640.56
2023-07-11T05:11:16.345Z,100650.84
2023-07-11T05:14:04.717Z,100649.19
2023-07-11T05:16:45.028Z,100651.72
2023-07-11T05:19:31.738Z,100641.66
2023-07-11T05:22:12.056Z,100649.28
2023-07-11T05:24:58.682Z,100656.16
2023-07-11T05:27:52.688Z,100639.94
2023-07-11T05:30:46.726Z,100648.25
2023-07-11T05:33:26.898Z,100649.75
2023-07-11T05:36:40.668Z,100649.34
2023-07-11T05:39:27.631Z,100654.53
2023-07-11T05:42:14.630Z,100651.16
2023-07-11T05:45:02.694Z,100658.19
2023-07-11T05:47:42.819Z,100655.91
2023-07-11T05:50:29.621Z,100657.44
2023-07-11T05:53:16.645Z,100651.59
2023-07-11T05:56:04.913Z,100645.34
2023-07-11T05:58:44.734Z,100646.09
2023-07-11T06:01:34.703Z,100648.41
2023-07-11T06:04:19.020Z,100648.97
2023-07-11T06:07:05.652Z,100644.97
2023-07-11T06:09:45.814Z,100648.81
2023-07-11T06:12:32.585Z,100646.59
2023-07-11T06:15:19.647Z,100648.03
2023-07-11T06:17:59.979Z,100648.34
2023-07-11T06:20:46.622Z,100644.06
2023-07-11T06:23:27.038Z,100649.91
2023-07-11T06:26:13.657Z,100651.63
2023-07-11T06:29:00.630Z,100652.72
2023-07-11T06:31:47.849Z,100653.44
2023-07-11T06:34:27.566Z,100654.69
2023-07-11T06:37:08.133Z,100659.97
2023-07-11T06:39:54.598Z,100652.72
2023-07-11T06:42:41.664Z,100645.53
2023-07-11T06:45:28.608Z,100651.09
2023-07-11T06:48:09.016Z,100649.03
2023-07-11T06:50:55.631Z,100646.63
2023-07-11T06:53:36.073Z,100645.38
2023-07-11T06:56:23.569Z,100647.63
2023-07-11T06:59:10.630Z,100648.19
2023-07-11T07:01:57.618Z,100645.38
2023-07-11T07:04:44.647Z,100655.84
2023-07-11T07:07:24.673Z,100656.19
2023-07-11T07:10:11.609Z,100653.06
2023-07-11T07:12:51.674Z,100654.59
2023-07-11T07:15:38.600Z,100653.34
2023-07-11T07:18:18.751Z,100652.75
2023-07-11T07:21:05.635Z,100645.78
2023-07-11T07:23:52.614Z,100650.50
2023-07-11T07:26:39.616Z,100649.31
2023-07-11T07:29:26.577Z,100651.69
2023-07-11T07:32:13.561Z,100648.38
2023-07-11T07:35:00.596Z,100641.78
2023-07-11T07:37:47.613Z,100639.38
2023-07-11T07:40:35.709Z,100635.78
2023-07-11T07:43:22.593Z,100637.97
2023-07-11T07:46:11.610Z,100638.59
2023-07-11T07:48:58.560Z,100636.91
2023-07-11T07:51:45.535Z,100638.84
2023-07-11T07:54:27.906Z,100637.31
2023-07-11T07:57:14.541Z,100641.63
2023-07-11T08:00:01.588Z,100644.31
2023-07-11T08:02:50.588Z,100648.63
2023-07-11T08:05:38.586Z,100651.53
2023-07-11T08:08:25.519Z,100652.00
2023-07-11T08:11:14.611Z,100655.44
2023-07-11T08:14:01.631Z,100649.75
2023-07-11T08:16:41.996Z,100644.16
2023-07-11T08:19:28.574Z,100642.13
2023-07-11T08:22:15.582Z,100638.00
2023-07-11T08:25:02.558Z,100642.75
2023-07-11T08:27:43.174Z,100645.41
2023-07-11T08:30:29.610Z,100641.03
2023-07-11T08:33:23.519Z,100642.50
2023-07-11T08:36:10.745Z,100647.28
2023-07-11T08:38:53.730Z,100634.81
2023-07-11T08:41:57.549Z,100631.09
2023-07-11T08:45:01.925Z,100631.63
2023-07-11T08:48:01.642Z,100633.66
2023-07-11T08:50:51.676Z,100633.53
2023-07-11T08:53:43.509Z,100622.81
2023-07-11T08:56:46.533Z,100632.75
2023-07-11T08:59:49.519Z,100627.81
2023-07-11T09:03:02.536Z,100623.88
2023-07-11T09:06:10.644Z,100632.41
2023-07-11T09:09:02.488Z,100627.34
2023-07-11T09:12:10.878Z,100621.81
2023-07-11T09:15:11.482Z,100630.66
2023-07-11T09:18:01.536Z,100626.81
2023-07-11T09:20:48.665Z,100624.31
2023-07-11T09:35:33.983Z,100612.13
2023-07-11T09:38:33.955Z,100618.31
2023-07-11T09:41:22.061Z,100610.47
2023-07-11T09:44:09.090Z,100600.56
2023-07-11T09:46:56.000Z,100613.16
2023-07-11T09:49:43.926Z,100599.09
2023-07-11T09:52:51.966Z,100597.56
2023-07-11T09:55:37.419Z,100603.25
2023-07-11T09:58:29.907Z,100611.16
2023-07-11T10:01:29.964Z,100603.00
2023-07-11T10:04:14.095Z,100596.69
2023-07-11T10:07:03.900Z,100590.94
2023-07-11T10:09:52.059Z,100589.97
2023-07-11T10:12:38.869Z,100599.69
2023-07-11T10:15:30.846Z,100602.78
2023-07-11T10:18:26.998Z,100597.81
2023-07-11T10:21:21.882Z,100586.97
2023-07-11T10:24:11.918Z,100589.28
2023-07-11T10:27:02.922Z,100597.88
2023-07-11T10:29:48.060Z,100581.91
2023-07-11T10:32:47.906Z,100579.69
2023-07-11T10:35:41.894Z,100572.28
2023-07-11T10:38:44.492Z,100584.72
2023-07-11T10:41:43.905Z,100574.09
2023-07-11T10:44:36.810Z,100588.00
2023-07-11T10:47:16.964Z,100585.09
2023-07-11T10:50:05.942Z,100589.63
2023-07-11T10:52:47.936Z,100574.22
2023-07-11T10:55:42.847Z,100574.16
2023-07-11T10:58:34.977Z,100562.41
2023-07-11T11:02:03.848Z,100566.13
2023-07-11T11:05:25.478Z,100562.91
2023-07-11T11:08:21.875Z,100551.31
2023-07-11T11:11:38.836Z,100544.06
2023-07-11T11:14:43.843Z,100556.19
2023-07-11T11:17:37.933Z,100550.41
2023-07-11T11:20:30.856Z,100559.75
2023-07-11T11:23:41.952Z,100554.69
2023-07-11T11:26:49.806Z,100557.97
2023-07-11T11:29:39.806Z,100547.31
2023-07-11T11:32:34.952Z,100559.63
2023-07-11T11:35:59.796Z,100554.31
2023-07-11T11:39:05.336Z,100539.75
2023-07-11T11:42:23.873Z,100549.00
2023-07-11T11:51:12.849Z,100552.75
2023-07-11T11:54:16.824Z,100551.44
2023-07-11T11:57:06.823Z,100558.50
2023-07-11T11:59:47.104Z,100548.44
2023-07-11T12:02:47.853Z,100540.06
2023-07-11T12:05:35.775Z,100557.16
2023-07-11T12:08:36.821Z,100539.88
2023-07-11T12:11:23.743Z,100527.09
2023-07-11T12:14:32.797Z,100532.41
2023-07-11T12:17:45.869Z,100546.25
2023-07-11T12:20:34.805Z,100534.00
2023-07-11T12:23:37.400Z,100537.44
2023-07-11T12:26:32.723Z,100524.53
2023-07-11T12:29:55.977Z,100530.53
2023-07-11T12:32:46.843Z,100528.47
2023-07-11T12:35:36.766Z,100525.03
2023-07-11T12:38:26.461Z,100517.69
2023-07-11T12:41:39.054Z,100505.47
2023-07-11T12:44:29.761Z,100519.41
2023-07-11T12:47:15.906Z,100516.03
2023-07-11T12:50:03.870Z,100510.66
2023-07-11T12:52:50.750Z,100518.09
2023-07-11T12:55:31.460Z,100506.28
2023-07-11T12:58:18.705Z,100509.25
2023-07-11T13:01:00.143Z,100505.66
2023-07-11T13:03:49.731Z,100512.81
2023-07-11T13:06:34.055Z,100503.97
2023-07-11T13:09:25.757Z,100514.34
2023-07-11T13:12:11.684Z,100517.94
2023-07-11T13:15:00.705Z,100524.75
2023-07-11T13:17:49.763Z,100510.22
2023-07-11T13:20:35.883Z,100505.94
2023-07-11T13:23:22.725Z,100510.09
2023-07-11T13:26:09.665Z,100514.59
2023-07-11T13:29:14.702Z,100519.69
2023-07-11T13:32:14.712Z,100523.56
2023-07-11T13:35:22.342Z,100523.25
2023-07-11T13:38:02.818Z,100522.59
2023-07-11T13:40:50.701Z,100523.41
2023-07-11T13:43:38.622Z,100515.16
2023-07-11T13:46:23.248Z,100518.22
2023-07-11T13:49:09.800Z,100516.56
2023-07-11T13:52:03.735Z,100525.31
2023-07-11T13:54:47.670Z,100522.03
2023-07-11T13:57:34.662Z,100518.09
2023-07-11T14:00:16.527Z,100517.69
2023-07-11T14:03:03.717Z,100519.09
2023-07-11T14:05:43.762Z,100519.97
2023-07-11T14:08:36.815Z,100507.31
2023-07-11T14:11:22.815Z,100498.16
2023-07-11T14:14:28.976Z,100491.09
2023-07-11T14:17:31.714Z,100490.72
2023-07-11T14:20:23.720Z,100495.81
2023-07-11T14:23:03.625Z,100491.44
2023-07-11T14:25:43.967Z,100493.03
2023-07-11T14:28:31.612Z,100484.94
2023-07-11T14:31:26.759Z,100480.81
2023-07-11T14:34:06.758Z,100489.19
2023-07-11T14:36:54.625Z,100507.28
2023-07-11T14:39:41.611Z,100492.00
2023-07-11T14:42:29.388Z,100481.06
2023-07-11T14:45:16.761Z,100472.97
2023-07-11T14:48:03.592Z,100455.63
2023-07-11T14:50:43.742Z,100471.09
2023-07-11T14:53:39.575Z,100486.94
2023-07-11T14:59:35.607Z,100495.66
2023-07-11T15:02:51.876Z,100499.06
2023-07-11T15:11:38.825Z,100470.75
2023-07-11T15:17:10.756Z,100446.69
2023-07-11T15:19:57.649Z,100474.81
2023-07-11T15:22:37.752Z,100531.44
2023-07-11T15:25:43.626Z,100548.78
2023-07-11T15:28:32.591Z,100543.53
2023-07-11T15:31:23.722Z,100501.00
2023-07-11T15:34:03.659Z,100501.44
2023-07-11T15:36:50.779Z,100499.03
2023-07-11T15:39:30.612Z,100481.75
2023-07-11T15:42:26.615Z,100537.59
2023-07-11T15:45:07.020Z,100550.06
2023-07-11T15:47:53.642Z,100549.63
2023-07-11T15:50:35.660Z,100527.94
2023-07-11T15:53:22.580Z,100514.72
2023-07-11T15:56:09.693Z,100514.28
2023-07-11T15:58:56.549Z,100506.22
2023-07-11T16:01:43.602Z,100501.75
2023-07-11T16:04:26.850Z,100496.50
2023-07-11T16:07:16.500Z,100496.09
2023-07-11T16:09:57.045Z,100473.97
2023-07-11T16:12:43.534Z,100456.25
2023-07-11T16:15:35.588Z,100463.91
2023-07-11T16:18:26.775Z,100452.63
2023-07-11T16:21:07.856Z,100452.25
2023-07-11T16:23:47.905Z,100446.69
2023-07-11T16:26:38.762Z,100459.94
2023-07-11T16:29:32.588Z,100464.78
2023-07-11T16:32:15.728Z,100473.25
2023-07-11T16:35:02.566Z,100486.09
2023-07-11T16:37:42.674Z,100487.72
2023-07-11T16:40:31.523Z,100474.09
2023-07-11T16:43:12.625Z,100484.94
2023-07-11T16:46:00.583Z,100485.75
2023-07-11T16:48:47.536Z,100489.38
2023-07-11T16:51:34.573Z,100495.00
2023-07-11T16:54:24.605Z,100499.41
2023-07-11T16:57:17.872Z,100502.59
2023-07-11T17:00:04.533Z,100510.22
2023-07-11T17:02:46.720Z,100511.03
2023-07-11T17:05:34.518Z,100519.09
2023-07-11T17:08:25.460Z,100516.28
2023-07-11T17:11:13.502Z,100515.91
2023-07-11T17:13:54.343Z,100540.81
2023-07-11T17:16:43.529Z,100552.06
2023-07-11T17:19:39.537Z,100547.66
2023-07-11T17:22:20.567Z,100547.63
2023-07-11T17:25:07.549Z,100544.81
2023-07-11T17:27:58.463Z,100547.63
2023-07-11T17:30:46.622Z,100544.00
2023-07-11T17:33:36.265Z,100529.56
2023-07-11T17:36:27.488Z,100531.16
2023-07-11T17:39:31.518Z,100524.72
2023-07-11T17:42:25.908Z,100518.31
2023-07-11T17:48:16.378Z,100521.91
2023-07-11T17:51:04.653Z,100527.56
2023-07-11T17:53:44.523Z,100531.56
2023-07-11T17:56:47.462Z,100530.75
2023-07-11T17:59:34.741Z,100543.22
2023-07-11T18:02:38.407Z,100552.81
2023-07-11T18:05:32.439Z,100536.75
2023-07-11T18:08:18.506Z,100541.19
2023-07-11T18:11:05.827Z,100541.19
2023-07-11T18:13:46.669Z,100556.03
2023-07-11T18:16:36.489Z,100569.69
2023-07-11T18:19:23.474Z,100566.47
2023-07-11T18:22:03.524Z,100560.81
2023-07-11T18:24:50.419Z,100564.44
2023-07-11T18:27:36.490Z,100576.88
2023-07-11T18:30:27.339Z,100572.88
2023-07-11T18:33:07.672Z,100568.88
2023-07-11T18:35:56.403Z,100570.06
2023-07-11T18:38:36.506Z,100572.88
2023-07-11T18:41:24.464Z,100577.28
2023-07-11T18:44:11.394Z,100567.66
2023-07-11T18:46:58.445Z,100569.25
2023-07-11T18:49:45.376Z,100570.88
2023-07-11T18:52:35.391Z,100569.25
2023-07-11T18:55:18.590Z,100563.56
2023-07-11T18:58:06.376Z,100570.75
2023-07-11T19:00:50.199Z,100565.91
2023-07-11T19:03:37.468Z,100573.50
2023-07-11T19:06:23.494Z,100579.94
2023-07-11T19:09:10.562Z,100583.09
2023-07-11T19:11:50.505Z,100574.31
2023-07-11T19:14:37.358Z,100579.13
2023-07-11T19:17:44.468Z,100589.53
2023-07-11T19:20:46.378Z,100582.72
2023-07-11T19:23:42.357Z,100578.72
2023-07-11T19:26:30.342Z,100575.53
2023-07-11T19:29:17.365Z,100562.31
2023-07-11T19:31:59.225Z,100559.56
2023-07-11T19:34:46.365Z,100561.56
2023-07-11T19:37:26.668Z,100561.19
2023-07-11T19:40:14.338Z,100555.16
2023-07-11T19:42:55.831Z,100558.00
2023-07-11T19:45:50.434Z,100547.97
2023-07-11T19:48:31.134Z,100549.97
2023-07-11T19:51:18.265Z,100541.94
2023-07-11T19:53:58.634Z,100548.38
2023-07-11T19:56:45.347Z,100545.16
2023-07-11T19:59:32.317Z,100537.91
2023-07-11T20:02:28.440Z,100535.91
2023-07-11T20:05:15.328Z,100539.53
2023-07-11T20:08:02.338Z,100527.84
2023-07-11T20:10:52.301Z,100525.81
2023-07-11T20:13:33.416Z,100522.63
2023-07-11T20:16:23.299Z,100518.63
2023-07-11T20:19:17.294Z,100515.41
2023-07-11T20:22:05.320Z,100520.16
2023-07-11T20:24:54.367Z,100520.16
2023-07-11T20:27:41.243Z,100516.16
2023-07-11T20:30:24.442Z,100516.53
2023-07-11T20:33:11.313Z,100522.94
2023-07-11T20:35:54.402Z,100526.56
2023-07-11T20:38:41.262Z,100524.56
2023-07-11T20:41:22.492Z,100527.38
2023-07-11T20:44:09.339Z,100524.97
2023-07-11T20:46:49.442Z,100519.34
2023-07-11T20:49:37.142Z,100529.81
2023-07-11T20:52:18.368Z,100521.81
2023-07-11T20:55:05.257Z,100520.25
2023-07-11T20:57:52.266Z,100530.69
2023-07-11T21:00:35.994Z,100527.09
2023-07-11T21:03:32.235Z,100521.88
2023-07-11T21:06:51.243Z,100507.06
2023-07-11T21:09:38.289Z,100521.47
2023-07-11T21:12:20.580Z,100525.50
2023-07-11T21:15:08.247Z,100538.34
2023-07-11T21:17:55.337Z,100542.38
2023-07-11T21:33:27.575Z,100540.19
2023-07-11T21:36:23.574Z,100555.09
2023-07-11T21:39:03.612Z,100563.94
2023-07-11T21:41:50.511Z,100568.00
2023-07-11T21:44:37.504Z,100572.00
2023-07-11T21:47:17.858Z,100576.06
2023-07-11T21:50:04.503Z,100585.31
2023-07-11T21:52:44.911Z,100595.72
2023-07-11T21:55:31.457Z,100594.13
2023-07-11T21:58:24.498Z,100591.72
2023-07-11T22:01:04.602Z,100578.03
2023-07-11T22:03:52.549Z,100576.00
2023-07-11T22:06:35.627Z,100564.31
2023-07-11T22:09:28.580Z,100546.25
2023-07-11T22:12:08.601Z,100546.22
2023-07-11T22:14:55.496Z,100528.97
2023-07-11T22:17:42.519Z,100530.94
2023-07-11T22:20:44.534Z,100526.88
2023-07-11T22:23:24.581Z,100521.66
2023-07-11T22:26:24.452Z,100529.28
2023-07-11T22:29:04.736Z,100530.09
2023-07-11T22:31:51.537Z,100527.31
2023-07-11T22:34:31.652Z,100534.94
2023-07-11T22:37:18.746Z,100525.34
2023-07-11T22:40:05.615Z,100524.56
2023-07-11T22:42:45.872Z,100539.06
2023-07-11T22:45:32.425Z,100538.28
2023-07-11T22:48:28.491Z,100543.97
2023-07-11T22:51:14.868Z,100540.75
2023-07-11T22:54:02.442Z,100541.19
2023-07-11T22:56:49.411Z,100553.22
2023-07-11T22:59:36.444Z,100550.81
2023-07-11T23:02:23.421Z,100546.00
2023-07-11T23:05:03.541Z,100546.44
2023-07-11T23:07:50.410Z,100545.25
2023-07-11T23:10:39.067Z,100543.22
2023-07-11T23:13:25.432Z,100551.66
2023-07-11T23:16:12.441Z,100539.59
2023-07-11T23:18:53.020Z,100540.00
2023-07-11T23:21:41.507Z,100535.59
2023-07-11T23:24:21.748Z,100544.41
2023-07-11T23:27:08.473Z,100541.19
2023-07-11T23:29:48.762Z,100545.63
2023-07-11T23:32:35.608Z,100542.41
2023-07-11T23:35:18.098Z,100539.63
2023-07-11T23:38:05.395Z,100541.19
2023-07-11T23:40:50.979Z,100542.38
2023-07-11T23:43:43.412Z,100532.75
2023-07-11T23:46:35.467Z,100531.94
2023-07-11T23:49:20.604Z,100527.13
2023-07-11T23:52:07.409Z,100527.50
2023-07-11T23:54:47.436Z,100534.38
2023-07-11T23:57:34.351Z,100528.31
